Time;durP1;ratioP1;P1;durP2;ratioP2;P2;SDS_P1;SDS_P2;PMS_P1;PMS_P2;Temp;Humidity;BMP_temperature;BMP_pressure;BME280_temperature;BME280_humidity;BME280_pressure;Samples;Min_cycle;Max_cycle;Signal;HPM_P1;HPM_P2
2021/11/24 00:01:22;;;;;;;4.50;4.07;;;5.30;99.90;;;;;;5067012;28;20265;-73
2021/11/24 00:03:48;;;;;;;5.40;3.47;;;5.30;99.90;;;;;;5050193;28;20730;-72
2021/11/24 00:06:14;;;;;;;4.97;3.70;;;5.30;99.90;;;;;;5063358;28;20226;-72
2021/11/24 00:08:39;;;;;;;4.83;3.60;;;5.30;99.90;;;;;;5062161;28;20215;-73
2021/11/24 00:11:05;;;;;;;4.00;2.90;;;5.30;99.90;;;;;;5072556;28;20253;-72
2021/11/24 00:13:31;;;;;;;7.70;3.60;;;5.30;99.90;;;;;;5070730;28;20265;-72
2021/11/24 00:15:57;;;;;;;10.20;4.03;;;5.30;99.90;;;;;;5052728;28;20226;-70
2021/11/24 00:18:23;;;;;;;5.03;3.43;;;5.30;99.90;;;;;;5053327;28;20257;-72
2021/11/24 00:20:48;;;;;;;5.47;3.00;;;5.30;99.90;;;;;;5053276;28;20686;-72
2021/11/24 00:23:14;;;;;;;5.90;4.07;;;5.40;99.90;;;;;;5062381;28;20446;-71
2021/11/24 00:25:41;;;;;;;13.60;6.53;;;5.40;99.90;;;;;;5085271;28;20229;-72
2021/11/24 00:28:07;;;;;;;25.93;8.90;;;5.40;99.90;;;;;;5069151;28;20238;-72
2021/11/24 00:30:33;;;;;;;29.80;10.80;;;5.40;99.90;;;;;;5053186;28;20464;-72
2021/11/24 00:32:59;;;;;;;29.63;9.67;;;5.40;99.90;;;;;;5051759;28;20855;-71
2021/11/24 00:35:25;;;;;;;12.70;7.07;;;5.40;99.90;;;;;;5070621;28;20221;-73
2021/11/24 00:37:51;;;;;;;13.33;5.40;;;5.40;99.90;;;;;;5074474;28;20451;-72
2021/11/24 00:40:17;;;;;;;11.37;6.80;;;5.40;99.90;;;;;;5073592;28;20445;-72
2021/11/24 00:42:43;;;;;;;9.00;6.37;;;5.40;99.90;;;;;;5052504;28;20613;-73
2021/11/24 00:45:09;;;;;;;11.83;6.27;;;5.40;99.90;;;;;;5068565;28;20449;-72
2021/11/24 00:47:35;;;;;;;10.60;7.00;;;5.40;99.90;;;;;;5071060;28;20227;-72
2021/11/24 00:50:01;;;;;;;11.77;5.87;;;5.40;99.90;;;;;;5069053;28;20438;-72
2021/11/24 00:52:28;;;;;;;10.17;5.70;;;5.40;99.90;;;;;;5066002;28;20268;-71
2021/11/24 00:54:54;;;;;;;8.10;6.10;;;5.40;99.90;;;;;;5051890;28;20499;-71
2021/11/24 00:57:20;;;;;;;9.93;5.23;;;5.40;99.90;;;;;;5069007;28;20532;-72
2021/11/24 00:59:46;;;;;;;10.40;5.67;;;5.40;99.90;;;;;;5070661;28;20230;-72
2021/11/24 01:02:11;;;;;;;10.37;6.07;;;5.40;99.90;;;;;;5065959;28;20541;-75
2021/11/24 01:04:37;;;;;;;9.57;5.80;;;5.40;99.90;;;;;;5068858;28;20223;-71
2021/11/24 01:07:03;;;;;;;18.07;5.70;;;5.40;99.90;;;;;;5068791;28;20223;-72
2021/11/24 01:09:29;;;;;;;15.63;5.80;;;5.40;99.90;;;;;;5073124;28;20219;-73
2021/11/24 01:11:55;;;;;;;11.67;5.67;;;5.40;99.90;;;;;;5052182;28;20258;-70
2021/11/24 01:14:21;;;;;;;9.07;5.03;;;5.40;99.90;;;;;;5068734;28;20234;-72
2021/11/24 01:16:47;;;;;;;7.13;4.83;;;5.40;99.90;;;;;;5051705;28;20479;-72
2021/11/24 01:19:13;;;;;;;12.40;5.40;;;5.40;99.90;;;;;;5060102;28;20278;-72
2021/11/24 01:21:38;;;;;;;6.80;5.00;;;5.40;99.90;;;;;;5069326;28;20233;-73
2021/11/24 01:24:04;;;;;;;11.50;5.80;;;5.40;99.90;;;;;;5067672;28;20903;-71
2021/11/24 01:26:30;;;;;;;17.47;7.23;;;5.40;99.90;;;;;;5070111;28;20284;-72
2021/11/24 01:28:56;;;;;;;13.53;6.70;;;5.40;99.90;;;;;;5051785;28;20223;-72
2021/11/24 01:31:21;;;;;;;8.57;5.60;;;5.40;99.90;;;;;;5064106;28;20220;-72
2021/11/24 01:33:48;;;;;;;10.50;5.77;;;5.50;99.90;;;;;;5051828;28;20627;-72
2021/11/24 01:36:13;;;;;;;8.60;6.10;;;5.50;99.90;;;;;;5069603;28;20520;-72
2021/11/24 01:38:39;;;;;;;15.90;6.60;;;5.50;99.90;;;;;;5060579;28;20540;-72
2021/11/24 01:41:05;;;;;;;13.70;6.03;;;5.50;99.90;;;;;;5068419;28;20223;-72
2021/11/24 01:43:30;;;;;;;12.10;6.80;;;5.50;99.90;;;;;;5052292;28;20231;-72
2021/11/24 01:45:56;;;;;;;12.10;6.77;;;5.50;99.90;;;;;;5051897;28;20246;-72
2021/11/24 01:48:26;;;;;;;11.87;6.73;;;5.50;99.90;;;;;;5069771;28;20234;-72
2021/11/24 01:50:52;;;;;;;11.47;5.97;;;5.50;99.90;;;;;;5069728;28;20306;-72
2021/11/24 01:53:18;;;;;;;13.43;5.97;;;5.50;99.90;;;;;;5067705;28;20545;-72
2021/11/24 01:55:44;;;;;;;12.47;6.43;;;5.50;99.90;;;;;;5053281;28;20215;-73
2021/11/24 01:58:09;;;;;;;9.60;5.30;;;5.50;99.90;;;;;;5072042;28;20909;-71
2021/11/24 02:00:36;;;;;;;9.00;6.20;;;5.50;99.90;;;;;;5072034;28;20348;-71
2021/11/24 02:03:03;;;;;;;10.67;5.70;;;5.50;99.90;;;;;;5054978;28;20239;-71
2021/11/24 02:05:29;;;;;;;7.37;4.67;;;5.50;99.90;;;;;;5055157;28;20450;-73
2021/11/24 02:07:55;;;;;;;7.20;5.07;;;5.50;99.90;;;;;;5088764;28;20453;-72
2021/11/24 02:10:23;;;;;;;7.23;3.90;;;5.50;99.90;;;;;;5083624;28;20514;-72
2021/11/24 02:12:50;;;;;;;13.13;4.60;;;5.50;99.90;;;;;;5075368;28;20231;-72
2021/11/24 02:15:15;;;;;;;5.37;3.97;;;5.50;99.90;;;;;;5091795;28;20441;-72
2021/11/24 02:17:41;;;;;;;7.97;4.57;;;5.50;99.90;;;;;;5092562;28;20969;-71
2021/11/24 02:20:15;;;;;;;7.77;3.90;;;5.50;99.90;;;;;;5068443;28;20212;-72
2021/11/24 02:22:42;;;;;;;4.90;4.33;;;5.50;99.90;;;;;;5072012;28;20219;-72
2021/11/24 02:25:08;;;;;;;11.17;4.47;;;5.50;99.90;;;;;;5070829;28;20437;-72
2021/11/24 02:27:34;;;;;;;8.57;3.20;;;5.50;99.90;;;;;;5072101;28;20914;-72
2021/11/24 02:30:00;;;;;;;5.87;3.97;;;5.50;99.90;;;;;;5071569;28;20521;-73
2021/11/24 02:32:26;;;;;;;3.97;3.50;;;5.50;99.90;;;;;;5071252;28;20211;-73
2021/11/24 02:34:51;;;;;;;4.33;3.87;;;5.50;99.90;;;;;;5071185;28;20356;-72
2021/11/24 02:37:17;;;;;;;4.33;3.40;;;5.50;99.90;;;;;;5079556;28;20214;-71
2021/11/24 02:39:43;;;;;;;7.40;4.33;;;5.50;99.90;;;;;;5058441;28;20199;-72
2021/11/24 02:42:08;;;;;;;5.07;3.27;;;5.60;99.90;;;;;;5070884;28;20239;-72
2021/11/24 02:44:39;;;;;;;4.17;3.30;;;5.50;99.90;;;;;;5071581;28;20257;-71
2021/11/24 02:47:17;;;;;;;6.67;3.83;;;5.50;99.90;;;;;;5072383;28;20238;-74
2021/11/24 02:49:48;;;;;;;4.53;3.37;;;5.50;99.90;;;;;;5053788;28;21026;-71
2021/11/24 02:52:15;;;;;;;6.57;3.93;;;5.60;99.90;;;;;;5054157;28;20475;-71
2021/11/24 02:54:48;;;;;;;5.70;4.50;;;5.60;99.90;;;;;;5071313;28;20466;-72
2021/11/24 02:57:13;;;;;;;5.80;4.03;;;5.60;99.90;;;;;;5071934;28;20473;-73
2021/11/24 02:59:39;;;;;;;4.70;3.60;;;5.60;99.90;;;;;;5071097;28;20512;-73
2021/11/24 03:02:05;;;;;;;5.43;4.17;;;5.60;99.90;;;;;;5070982;28;20306;-74
2021/11/24 03:04:32;;;;;;;5.43;4.03;;;5.60;99.90;;;;;;5071148;28;20234;-73
2021/11/24 03:06:59;;;;;;;5.57;3.60;;;5.60;99.90;;;;;;5069917;28;20211;-72
2021/11/24 03:09:25;;;;;;;6.20;4.73;;;5.60;99.90;;;;;;5074784;28;20463;-72
2021/11/24 03:11:53;;;;;;;8.03;5.00;;;5.60;99.90;;;;;;5074203;28;20481;-73
2021/11/24 03:14:19;;;;;;;6.23;4.43;;;5.60;99.90;;;;;;5090682;28;20460;-72
2021/11/24 03:16:45;;;;;;;7.13;5.00;;;5.60;99.90;;;;;;5054039;28;20450;-73
2021/11/24 03:19:10;;;;;;;10.03;5.23;;;5.60;99.90;;;;;;5077428;28;20448;-70
2021/11/24 03:21:36;;;;;;;5.90;4.37;;;5.60;99.90;;;;;;5072671;28;20709;-72
2021/11/24 03:24:02;;;;;;;11.20;5.53;;;5.60;99.90;;;;;;5064952;28;20222;-72
2021/11/24 03:26:27;;;;;;;6.73;4.13;;;5.60;99.90;;;;;;5070694;28;20417;-73
2021/11/24 03:28:53;;;;;;;7.57;4.90;;;5.60;99.90;;;;;;5048481;28;20222;-73
2021/11/24 03:31:19;;;;;;;6.47;4.70;;;5.60;99.90;;;;;;5050861;28;20211;-72
2021/11/24 03:33:45;;;;;;;9.27;4.90;;;5.60;99.90;;;;;;5071538;28;20224;-72
2021/11/24 03:36:11;;;;;;;4.77;3.97;;;5.60;99.90;;;;;;5053472;28;20449;-72
2021/11/24 03:38:36;;;;;;;6.30;5.17;;;5.60;99.90;;;;;;5080994;28;20219;-72
2021/11/24 03:41:02;;;;;;;7.60;4.50;;;5.60;99.90;;;;;;5058569;28;20218;-72
2021/11/24 03:43:28;;;;;;;8.27;5.20;;;5.60;99.90;;;;;;5053218;28;20618;-72
2021/11/24 03:45:54;;;;;;;7.77;4.47;;;5.60;99.90;;;;;;5053520;28;20452;-72
2021/11/24 03:48:20;;;;;;;5.10;3.73;;;5.60;99.90;;;;;;5053953;28;20242;-72
2021/11/24 03:50:46;;;;;;;6.10;4.03;;;5.60;99.90;;;;;;5070685;28;20475;-72
2021/11/24 03:53:12;;;;;;;7.10;4.50;;;5.60;99.90;;;;;;5052535;28;20708;-73
2021/11/24 03:55:37;;;;;;;8.93;4.83;;;5.60;99.90;;;;;;5069840;28;20694;-72
2021/11/24 03:58:03;;;;;;;4.40;3.90;;;5.60;99.90;;;;;;5069534;28;20211;-72
2021/11/24 04:00:31;;;;;;;7.23;5.37;;;5.60;99.90;;;;;;5068461;28;20295;-72
2021/11/24 04:02:57;;;;;;;8.43;3.67;;;5.60;99.90;;;;;;5070871;28;20453;-72
2021/11/24 04:05:23;;;;;;;5.17;4.13;;;5.60;99.90;;;;;;5070203;28;20831;-71
2021/11/24 04:07:48;;;;;;;6.20;4.53;;;5.60;99.90;;;;;;5079148;28;20207;-72
2021/11/24 04:10:15;;;;;;;6.07;4.10;;;5.60;99.90;;;;;;5079966;28;21005;-71
2021/11/24 04:12:44;;;;;;;7.70;4.60;;;5.60;99.90;;;;;;5091563;28;20226;-73
2021/11/24 04:15:12;;;;;;;6.73;4.00;;;5.60;99.90;;;;;;5081167;28;20465;-73
2021/11/24 04:17:39;;;;;;;6.33;4.40;;;5.60;99.90;;;;;;5069789;28;20454;-73
2021/11/24 04:20:07;;;;;;;6.50;4.93;;;5.60;99.90;;;;;;5069197;28;20542;-74
2021/11/24 04:22:32;;;;;;;6.30;4.13;;;5.60;99.90;;;;;;5065424;28;20969;-72
2021/11/24 04:24:58;;;;;;;5.93;4.10;;;5.60;99.90;;;;;;5068850;28;20536;-73
2021/11/24 04:27:24;;;;;;;6.53;4.40;;;5.60;99.90;;;;;;5070016;28;20302;-71
2021/11/24 04:29:50;;;;;;;10.17;5.90;;;5.60;99.90;;;;;;5069214;28;20298;-72
2021/11/24 04:32:17;;;;;;;17.13;8.50;;;5.70;99.90;;;;;;5049071;28;20222;-69
2021/11/24 04:34:44;;;;;;;14.70;7.53;;;5.70;99.90;;;;;;5065993;28;20319;-72
2021/11/24 04:37:10;;;;;;;14.40;6.73;;;5.60;99.90;;;;;;5062868;28;20494;-70
2021/11/24 04:39:36;;;;;;;11.43;6.07;;;5.60;99.90;;;;;;5069892;28;20449;-72
2021/11/24 04:42:02;;;;;;;9.30;6.47;;;5.70;99.90;;;;;;5049094;28;20227;-71
2021/11/24 04:44:28;;;;;;;8.90;6.00;;;5.70;99.90;;;;;;5050834;28;20263;-72
2021/11/24 04:46:54;;;;;;;7.47;5.13;;;5.70;99.90;;;;;;5048718;28;20482;-72
2021/11/24 04:49:19;;;;;;;11.00;5.43;;;5.70;99.90;;;;;;5068833;28;20306;-72
2021/11/24 04:51:45;;;;;;;7.30;4.73;;;5.60;99.90;;;;;;5069507;28;20225;-72
2021/11/24 04:54:11;;;;;;;8.07;5.40;;;5.70;99.90;;;;;;5062822;28;20844;-72
2021/11/24 04:56:37;;;;;;;7.50;4.70;;;5.70;99.90;;;;;;5069265;28;20531;-72
2021/11/24 04:59:03;;;;;;;10.47;6.00;;;5.70;99.90;;;;;;5070110;28;20223;-73
2021/11/24 05:01:29;;;;;;;7.90;4.93;;;5.70;99.90;;;;;;5069282;28;20231;-72
2021/11/24 05:03:55;;;;;;;7.23;5.33;;;5.70;99.90;;;;;;5084915;28;20457;-73
2021/11/24 05:06:22;;;;;;;8.60;5.07;;;5.70;99.90;;;;;;5068903;28;20219;-73
2021/11/24 05:08:48;;;;;;;6.93;5.90;;;5.70;99.90;;;;;;5053009;28;20223;-73
2021/11/24 05:11:18;;;;;;;8.07;4.93;;;5.70;99.90;;;;;;5069022;28;20521;-74
2021/11/24 05:13:58;;;;;;;5.93;4.90;;;5.70;99.90;;;;;;5065324;28;20461;-73
2021/11/24 05:16:27;;;;;;;9.47;5.60;;;5.70;99.90;;;;;;5052422;28;20471;-73
2021/11/24 05:18:53;;;;;;;7.53;4.90;;;5.70;99.90;;;;;;5070437;28;20446;-72
2021/11/24 05:21:35;;;;;;;16.33;5.10;;;5.70;99.90;;;;;;5052362;28;20441;-72
2021/11/24 05:24:01;;;;;;;9.83;5.83;;;5.70;99.90;;;;;;5078497;28;21056;-72
2021/11/24 05:26:29;;;;;;;6.33;5.50;;;5.70;99.90;;;;;;5049230;28;20474;-72
2021/11/24 05:28:55;;;;;;;8.10;5.10;;;5.70;99.90;;;;;;5063842;28;20815;-72
2021/11/24 05:31:21;;;;;;;6.37;4.90;;;5.70;99.90;;;;;;5072816;28;20476;-72
2021/11/24 05:33:48;;;;;;;7.30;5.47;;;5.70;99.90;;;;;;5072721;28;20484;-72
2021/11/24 05:36:15;;;;;;;9.33;5.33;;;5.70;99.90;;;;;;5063245;28;20496;-72
2021/11/24 05:38:41;;;;;;;10.43;4.97;;;5.70;99.90;;;;;;5071735;28;20478;-72
2021/11/24 05:41:07;;;;;;;7.90;5.63;;;5.70;99.90;;;;;;5073448;28;20449;-72
2021/11/24 05:43:34;;;;;;;9.93;4.80;;;5.70;99.90;;;;;;5075661;28;20510;-72
2021/11/24 05:46:12;;;;;;;8.20;5.10;;;5.70;99.90;;;;;;5072262;28;20241;-73
2021/11/24 05:48:38;;;;;;;6.87;5.60;;;5.70;99.90;;;;;;5068753;28;20441;-73
2021/11/24 05:51:05;;;;;;;6.97;5.17;;;5.70;99.90;;;;;;5055857;28;20476;-72
2021/11/24 05:53:31;;;;;;;6.73;5.00;;;5.70;99.90;;;;;;5072558;28;20465;-73
2021/11/24 05:55:58;;;;;;;7.63;5.40;;;5.70;99.90;;;;;;5073027;28;20457;-72
2021/11/24 05:58:25;;;;;;;10.83;6.00;;;5.70;99.90;;;;;;5055665;28;20540;-72
2021/11/24 06:00:51;;;;;;;7.00;5.63;;;5.70;99.90;;;;;;5053500;28;20969;-73
2021/11/24 06:03:17;;;;;;;6.17;4.93;;;5.70;99.90;;;;;;5073052;28;20445;-72
2021/11/24 06:05:43;;;;;;;8.13;5.20;;;5.70;99.90;;;;;;5072396;28;20457;-72
2021/11/24 06:08:09;;;;;;;8.50;5.60;;;5.70;99.90;;;;;;5055339;28;20215;-71
2021/11/24 06:10:35;;;;;;;9.37;5.80;;;5.70;99.90;;;;;;5085724;28;20812;-72
2021/11/24 06:13:01;;;;;;;8.70;5.93;;;5.70;99.90;;;;;;5093344;28;20214;-72
2021/11/24 06:15:29;;;;;;;7.93;5.80;;;5.70;99.90;;;;;;5078812;28;20307;-72
2021/11/24 06:17:56;;;;;;;9.53;5.90;;;5.70;99.90;;;;;;5055073;28;20481;-72
2021/11/24 06:20:22;;;;;;;7.90;5.80;;;5.70;99.90;;;;;;5072213;28;20452;-72
2021/11/24 06:22:48;;;;;;;9.60;6.80;;;5.70;99.90;;;;;;5073342;28;20811;-72
2021/11/24 06:25:14;;;;;;;6.23;5.07;;;5.70;99.90;;;;;;5054947;28;20226;-72
2021/11/24 06:27:42;;;;;;;10.87;6.07;;;5.70;99.90;;;;;;5075724;28;20226;-72
2021/11/24 06:30:10;;;;;;;6.93;5.70;;;5.70;99.90;;;;;;5072771;28;20594;-72
2021/11/24 06:32:36;;;;;;;10.30;7.03;;;5.70;99.90;;;;;;5055297;28;20457;-72
2021/11/24 06:35:02;;;;;;;9.93;6.37;;;5.70;99.90;;;;;;5070924;28;20469;-72
2021/11/24 06:37:28;;;;;;;13.03;6.07;;;5.70;99.90;;;;;;5071543;28;20479;-72
2021/11/24 06:39:53;;;;;;;9.27;6.10;;;5.70;99.90;;;;;;5066838;28;21003;-72
2021/11/24 06:42:19;;;;;;;6.83;5.67;;;5.70;99.90;;;;;;5070494;28;20634;-72
2021/11/24 06:44:45;;;;;;;11.33;5.83;;;5.70;99.90;;;;;;5053739;28;20226;-72
2021/11/24 06:47:13;;;;;;;9.07;5.87;;;5.70;99.90;;;;;;5069097;28;20740;-70
2021/11/24 06:49:39;;;;;;;7.63;6.37;;;5.70;99.90;;;;;;5070993;28;20215;-72
2021/11/24 06:52:05;;;;;;;7.93;4.60;;;5.70;99.90;;;;;;5051252;28;21109;-73
2021/11/24 06:54:31;;;;;;;6.83;6.10;;;5.70;99.90;;;;;;5049650;28;20281;-73
2021/11/24 06:56:56;;;;;;;9.80;5.53;;;5.70;99.90;;;;;;5052556;28;20461;-72
2021/11/24 06:59:22;;;;;;;8.83;6.63;;;5.70;99.90;;;;;;5070078;28;20223;-73
2021/11/24 07:01:48;;;;;;;10.93;5.63;;;5.70;99.90;;;;;;5069058;28;20215;-73
2021/11/24 07:04:14;;;;;;;10.27;6.20;;;5.70;99.90;;;;;;5069265;28;20230;-73
2021/11/24 07:06:40;;;;;;;16.40;7.63;;;5.70;99.90;;;;;;5068454;28;20216;-72
2021/11/24 07:09:10;;;;;;;10.50;6.80;;;5.70;99.90;;;;;;5070838;28;20223;-73
2021/11/24 07:11:37;;;;;;;9.37;7.17;;;5.70;99.90;;;;;;5071319;28;20445;-73
2021/11/24 07:14:03;;;;;;;9.07;6.00;;;5.70;99.90;;;;;;5069052;28;20466;-72
2021/11/24 07:16:28;;;;;;;9.93;7.60;;;5.70;99.90;;;;;;5069450;28;20536;-73
2021/11/24 07:18:54;;;;;;;11.20;6.57;;;5.70;99.90;;;;;;5069555;28;20525;-73
2021/11/24 07:21:20;;;;;;;12.30;8.80;;;5.70;99.90;;;;;;5069095;28;20218;-73
2021/11/24 07:23:46;;;;;;;10.47;7.60;;;5.70;99.90;;;;;;5070800;28;20225;-74
2021/11/24 07:26:12;;;;;;;16.93;7.87;;;5.70;99.90;;;;;;5071515;28;20445;-73
2021/11/24 07:28:38;;;;;;;8.57;6.57;;;5.70;99.90;;;;;;5069349;28;20461;-74
2021/11/24 07:31:04;;;;;;;11.27;7.50;;;5.70;99.90;;;;;;5068906;28;20218;-72
2021/11/24 07:33:29;;;;;;;11.53;7.03;;;5.70;99.90;;;;;;5081171;28;20223;-73
2021/11/24 07:35:55;;;;;;;9.90;6.90;;;5.70;99.90;;;;;;5067076;28;20462;-73
2021/11/24 07:38:21;;;;;;;11.30;6.60;;;5.70;99.90;;;;;;5054524;28;20247;-72
2021/11/24 07:40:46;;;;;;;9.27;6.40;;;5.70;99.90;;;;;;5063446;28;20237;-72
2021/11/24 07:43:12;;;;;;;9.50;6.20;;;5.70;99.90;;;;;;5050027;28;20586;-72
2021/11/24 07:45:38;;;;;;;7.73;6.10;;;5.70;99.90;;;;;;5050669;28;20246;-72
2021/11/24 07:48:04;;;;;;;10.27;6.13;;;5.70;99.90;;;;;;5066360;28;20223;-72
2021/11/24 07:50:30;;;;;;;10.30;7.40;;;5.70;99.90;;;;;;5067061;28;20231;-72
2021/11/24 07:52:55;;;;;;;9.60;5.57;;;5.70;99.90;;;;;;5049320;28;20449;-72
2021/11/24 07:55:21;;;;;;;14.10;6.77;;;5.80;99.90;;;;;;5043675;28;20231;-74
2021/11/24 07:57:47;;;;;;;11.50;6.87;;;5.80;99.90;;;;;;5031340;28;20227;-73
2021/11/24 08:00:14;;;;;;;8.00;5.80;;;5.70;99.90;;;;;;5063861;28;20456;-72
2021/11/24 08:02:40;;;;;;;7.97;6.20;;;5.80;99.90;;;;;;5067083;28;20265;-72
2021/11/24 08:05:08;;;;;;;11.20;6.50;;;5.80;99.90;;;;;;5061897;28;20596;-70
2021/11/24 08:07:36;;;;;;;13.50;6.30;;;5.80;99.90;;;;;;5067656;28;20481;-71
2021/11/24 08:10:03;;;;;;;13.90;6.77;;;5.80;99.90;;;;;;5069990;28;20466;-71
2021/11/24 08:12:29;;;;;;;9.90;7.60;;;5.80;99.90;;;;;;5066877;28;20457;-72
2021/11/24 08:14:55;;;;;;;13.80;7.53;;;5.80;99.90;;;;;;5050580;28;20510;-72
2021/11/24 08:17:20;;;;;;;9.80;6.60;;;5.80;99.90;;;;;;5069720;28;20686;-72
2021/11/24 08:19:46;;;;;;;9.13;5.73;;;5.80;99.90;;;;;;5068574;28;20229;-72
2021/11/24 08:22:12;;;;;;;10.33;6.70;;;5.80;99.90;;;;;;5051645;28;20230;-72
2021/11/24 08:24:37;;;;;;;9.93;6.00;;;5.80;99.90;;;;;;5066183;28;20223;-72
2021/11/24 08:27:03;;;;;;;23.83;8.10;;;5.80;99.90;;;;;;5066250;28;20215;-70
2021/11/24 08:29:30;;;;;;;13.30;8.60;;;5.80;99.90;;;;;;5068131;28;20215;-72
2021/11/24 08:31:56;;;;;;;9.57;6.93;;;5.80;99.90;;;;;;5066240;28;20223;-72
2021/11/24 08:34:22;;;;;;;14.17;9.43;;;5.80;99.90;;;;;;5045727;28;20465;-71
2021/11/24 08:36:50;;;;;;;16.50;14.00;;;5.80;99.90;;;;;;5055578;28;20222;-73
2021/11/24 08:39:16;;;;;;;21.13;16.77;;;5.80;99.90;;;;;;5068813;28;20446;-72
2021/11/24 08:41:43;;;;;;;23.50;15.83;;;5.80;99.90;;;;;;5069323;28;20499;-72
2021/11/24 08:44:09;;;;;;;19.77;15.27;;;5.80;99.90;;;;;;5066975;28;20835;-72
2021/11/24 08:46:35;;;;;;;16.30;13.20;;;5.90;99.90;;;;;;5068648;28;20450;-72
2021/11/24 08:49:01;;;;;;;20.97;13.50;;;5.80;99.90;;;;;;5066611;28;20453;-74
2021/11/24 08:51:27;;;;;;;15.77;11.77;;;5.80;99.90;;;;;;5051691;28;20257;-74
2021/11/24 08:53:53;;;;;;;17.00;11.73;;;5.80;99.90;;;;;;5050963;28;20478;-72
2021/11/24 08:56:18;;;;;;;16.37;11.40;;;5.80;99.90;;;;;;5063754;28;20218;-73
2021/11/24 08:58:44;;;;;;;15.47;11.33;;;5.90;99.90;;;;;;5067600;28;20195;-74
2021/11/24 09:01:10;;;;;;;13.00;9.53;;;5.90;99.90;;;;;;5066772;28;20211;-75
2021/11/24 09:03:36;;;;;;;15.60;10.60;;;5.90;99.90;;;;;;5068278;28;20219;-73
2021/11/24 09:06:03;;;;;;;17.93;11.13;;;5.90;99.90;;;;;;5051504;28;20507;-73
2021/11/24 09:08:30;;;;;;;17.63;13.00;;;5.90;99.90;;;;;;5068324;28;20302;-73
2021/11/24 09:10:56;;;;;;;13.30;11.63;;;5.90;99.90;;;;;;5059504;28;20489;-73
2021/11/24 09:13:21;;;;;;;19.10;13.63;;;5.90;99.90;;;;;;5051534;28;20496;-73
2021/11/24 09:15:48;;;;;;;27.90;18.77;;;5.90;99.90;;;;;;5051660;28;20309;-73
2021/11/24 09:18:14;;;;;;;17.90;13.43;;;5.90;99.90;;;;;;5067972;28;20521;-75
2021/11/24 09:20:41;;;;;;;13.03;10.70;;;6.00;99.90;;;;;;5049361;28;20230;-73
2021/11/24 09:23:07;;;;;;;15.37;10.60;;;6.00;99.90;;;;;;5048794;28;20460;-73
2021/11/24 09:25:38;;;;;;;13.50;9.40;;;6.00;99.90;;;;;;5064143;28;21018;-72
2021/11/24 09:28:14;;;;;;;12.23;8.97;;;5.90;99.90;;;;;;5065779;28;20450;-73
2021/11/24 09:30:41;;;;;;;9.13;7.47;;;6.00;99.90;;;;;;5065935;28;20473;-73
2021/11/24 09:33:08;;;;;;;9.90;8.60;;;6.00;99.90;;;;;;5066482;28;20465;-73
2021/11/24 09:35:33;;;;;;;13.10;7.90;;;6.00;99.90;;;;;;5049661;28;20476;-73
2021/11/24 09:38:01;;;;;;;9.73;6.60;;;6.00;99.90;;;;;;5048401;28;20461;-73
2021/11/24 09:40:27;;;;;;;17.70;14.47;;;6.00;99.90;;;;;;5046036;28;20231;-72
2021/11/24 09:42:59;;;;;;;16.63;12.60;;;6.00;99.90;;;;;;5064199;28;20502;-72
2021/11/24 09:45:25;;;;;;;13.53;8.57;;;6.00;99.90;;;;;;5065456;28;20449;-73
2021/11/24 09:47:54;;;;;;;8.43;6.30;;;6.00;99.90;;;;;;5048266;28;20516;-73
2021/11/24 09:50:23;;;;;;;6.77;5.80;;;6.00;99.90;;;;;;5048402;28;20442;-73
2021/11/24 09:52:49;;;;;;;6.47;5.87;;;6.00;99.90;;;;;;5044661;28;20477;-73
2021/11/24 09:55:15;;;;;;;7.50;5.80;;;6.00;99.90;;;;;;5064761;28;20462;-71
2021/11/24 09:57:41;;;;;;;7.50;5.60;;;6.00;99.90;;;;;;5065533;28;20463;-73
2021/11/24 10:00:08;;;;;;;11.87;4.33;;;6.00;99.90;;;;;;5064720;28;20221;-73
2021/11/24 10:02:38;;;;;;;5.47;4.57;;;6.10;99.90;;;;;;5066033;28;20453;-73
2021/11/24 10:05:05;;;;;;;7.57;5.53;;;6.10;99.90;;;;;;5065634;28;20472;-73
2021/11/24 10:07:30;;;;;;;6.90;6.20;;;6.10;99.90;;;;;;5065541;28;20469;-73
2021/11/24 10:09:56;;;;;;;8.60;5.70;;;6.10;99.90;;;;;;5065861;28;20453;-73
2021/11/24 10:12:22;;;;;;;7.20;4.53;;;6.10;99.90;;;;;;5065438;28;20219;-73
2021/11/24 10:14:48;;;;;;;5.90;4.57;;;6.10;99.90;;;;;;5064826;28;21000;-73
2021/11/24 10:17:20;;;;;;;5.10;4.50;;;6.20;99.90;;;;;;5049799;28;20222;-73
2021/11/24 10:20:09;;;;;;;7.90;5.57;;;6.20;99.90;;;;;;5052403;28;20223;-72
2021/11/24 10:22:36;;;;;;;5.70;4.37;;;6.20;99.90;;;;;;5067324;28;21039;-73
2021/11/24 10:25:11;;;;;;;7.10;4.50;;;6.20;99.90;;;;;;5049325;28;20549;-72
2021/11/24 10:27:48;;;;;;;8.00;5.10;;;6.20;99.90;;;;;;5052406;28;20546;-72
2021/11/24 10:30:26;;;;;;;5.13;4.07;;;6.20;99.90;;;;;;5069620;28;20486;-72
2021/11/24 10:32:52;;;;;;;7.07;4.20;;;6.20;99.90;;;;;;5081700;28;20515;-73
2021/11/24 10:35:27;;;;;;;5.33;3.93;;;6.20;99.90;;;;;;5068285;28;20526;-73
2021/11/24 10:38:16;;;;;;;4.63;4.13;;;6.30;99.90;;;;;;5058959;28;20459;-72
2021/11/24 10:40:47;;;;;;;4.57;3.97;;;6.30;99.90;;;;;;5068130;28;20450;-73
2021/11/24 10:43:14;;;;;;;5.63;4.80;;;6.30;99.90;;;;;;5068004;28;20457;-73
2021/11/24 10:45:52;;;;;;;6.10;5.03;;;6.30;99.90;;;;;;5052314;28;20511;-73
2021/11/24 10:48:33;;;;;;;5.90;4.47;;;6.30;99.90;;;;;;5068713;28;20872;-71
2021/11/24 10:51:01;;;;;;;4.97;3.83;;;6.30;99.90;;;;;;5051828;28;20475;-72
2021/11/24 10:53:27;;;;;;;7.20;4.30;;;6.40;99.90;;;;;;5051694;28;20568;-73
2021/11/24 10:55:53;;;;;;;5.60;4.57;;;6.40;99.90;;;;;;5051395;28;20464;-73
2021/11/24 10:58:25;;;;;;;6.37;4.23;;;6.40;99.90;;;;;;5048313;28;20454;-70
2021/11/24 11:00:57;;;;;;;9.47;5.03;;;6.40;99.90;;;;;;5066609;28;20454;-73
2021/11/24 11:03:34;;;;;;;6.57;4.53;;;6.40;99.90;;;;;;5057473;28;20445;-72
2021/11/24 11:05:59;;;;;;;9.60;5.70;;;6.40;99.90;;;;;;5067573;28;20488;-73
2021/11/24 11:08:25;;;;;;;9.33;6.73;;;6.40;99.90;;;;;;5068144;28;20469;-73
2021/11/24 11:10:53;;;;;;;13.70;5.77;;;6.40;99.90;;;;;;5077185;28;20212;-73
2021/11/24 11:13:20;;;;;;;6.00;5.10;;;6.40;99.90;;;;;;5047039;28;20219;-73
2021/11/24 11:15:54;;;;;;;6.90;4.90;;;6.40;99.90;;;;;;5068229;28;20461;-72
2021/11/24 11:18:27;;;;;;;4.30;3.20;;;6.40;99.90;;;;;;5068284;28;20473;-72
2021/11/24 11:20:58;;;;;;;3.13;2.83;;;6.40;99.90;;;;;;5067034;28;20457;-73
2021/11/24 11:23:34;;;;;;;3.50;3.00;;;6.50;99.90;;;;;;5066638;28;20437;-73
2021/11/24 11:26:29;;;;;;;3.70;3.40;;;6.50;99.90;;;;;;5064903;28;20459;-72
2021/11/24 11:28:55;;;;;;;4.10;2.83;;;6.50;99.90;;;;;;5048447;28;20551;-72
2021/11/24 11:31:23;;;;;;;3.90;3.20;;;6.50;99.90;;;;;;5050121;28;20461;-74
2021/11/24 11:33:55;;;;;;;3.43;3.13;;;6.50;99.90;;;;;;5050833;28;20493;-72
2021/11/24 11:36:22;;;;;;;7.73;4.80;;;6.50;99.90;;;;;;5062561;28;20454;-72
2021/11/24 11:38:50;;;;;;;5.53;3.80;;;6.50;99.90;;;;;;5072059;28;20821;-71
2021/11/24 11:41:18;;;;;;;3.93;3.40;;;6.50;99.90;;;;;;5062740;28;20438;-72
2021/11/24 11:43:49;;;;;;;2.50;2.30;;;6.50;99.90;;;;;;5067199;28;20833;-73
2021/11/24 11:46:18;;;;;;;2.10;1.80;;;6.50;99.90;;;;;;5050165;28;20454;-73
2021/11/24 11:48:45;;;;;;;4.30;3.90;;;6.40;99.90;;;;;;5066832;28;20464;-72
2021/11/24 11:51:13;;;;;;;4.33;4.03;;;6.50;99.90;;;;;;5066501;28;20516;-73
2021/11/24 11:53:49;;;;;;;7.00;6.30;;;6.50;99.90;;;;;;5068478;28;20447;-72
2021/11/24 11:56:20;;;;;;;8.63;7.40;;;6.50;99.90;;;;;;5068250;28;20536;-73
2021/11/24 11:58:52;;;;;;;11.27;7.67;;;6.50;99.90;;;;;;5050274;28;20464;-73
2021/11/24 12:01:34;;;;;;;8.33;7.30;;;6.50;99.90;;;;;;5052184;28;20438;-73
2021/11/24 12:04:17;;;;;;;5.47;4.60;;;6.50;99.90;;;;;;5073963;28;20464;-71
2021/11/24 12:06:52;;;;;;;3.20;2.70;;;6.50;99.90;;;;;;5053305;28;20472;-72
2021/11/24 12:09:30;;;;;;;3.60;2.77;;;6.50;99.90;;;;;;5067911;28;20533;-72
2021/11/24 12:12:04;;;;;;;3.00;2.70;;;6.50;99.90;;;;;;5073620;28;20480;-74
2021/11/24 12:14:41;;;;;;;5.60;3.77;;;6.50;99.90;;;;;;5071254;28;20485;-72
2021/11/24 12:17:26;;;;;;;3.97;3.40;;;6.50;99.90;;;;;;5054776;28;20470;-73
2021/11/24 12:19:51;;;;;;;8.37;6.17;;;6.60;99.90;;;;;;5029320;28;20458;-73
2021/11/24 12:22:37;;;;;;;7.60;5.23;;;6.60;99.90;;;;;;5055936;28;20458;-71
2021/11/24 12:25:03;;;;;;;6.50;4.30;;;6.60;99.90;;;;;;5065653;28;20611;-74
2021/11/24 12:28:09;;;;;;;6.53;4.80;;;6.60;99.90;;;;;;5055193;28;20455;-73
2021/11/24 12:33:15;;;;;;;5.73;4.70;;;6.60;99.90;;;;;;5079378;28;20468;-71
2021/11/24 12:35:52;;;;;;;7.50;4.93;;;6.60;99.90;;;;;;5083841;28;20223;-72
2021/11/24 12:38:20;;;;;;;5.97;4.70;;;6.70;99.90;;;;;;5052826;28;20440;-73
2021/11/24 12:40:48;;;;;;;9.30;5.07;;;6.70;99.90;;;;;;5054121;28;20458;-71
2021/11/24 12:43:18;;;;;;;13.57;4.20;;;6.70;99.90;;;;;;5048540;28;20434;-73
2021/11/24 12:46:24;;;;;;;5.93;3.73;;;6.70;99.90;;;;;;5043871;28;20587;-72
2021/11/24 12:49:04;;;;;;;4.03;2.83;;;6.70;99.90;;;;;;4984378;28;20486;-73
2021/11/24 12:51:39;;;;;;;5.40;3.10;;;6.70;99.90;;;;;;4991810;28;20545;-73
2021/11/24 12:54:10;;;;;;;2.60;2.40;;;6.70;99.90;;;;;;5041437;28;20462;-71
2021/11/24 12:56:38;;;;;;;4.50;2.67;;;6.70;99.90;;;;;;5038234;28;20450;-73
2021/11/24 12:59:09;;;;;;;2.80;2.33;;;6.70;99.90;;;;;;5064416;28;20499;-73